KNEW/NEW METAR and TAF weather

Enter ICAO airport designator
Station Type Date Time Source
KNEW METAR 2022/11/27 07:53 UTC NOAA

KNEW 270753Z AUTO 25015KT 10SM CLR 15/11 A2991 RMK AO2 SLP120 T01500106


Station Type Date Time Source
KNEW Decoded METAR 2022/11/27 07:53 UTC NOAA

NEW ORLEANS LAKEFRONT AIRPORT , LA, United States (KNEW) 30-03N 90-02W 3M
Nov 27, 2022 - 02:53 AM EST / 2022.11.27 0753 UTC
Wind: from the WSW (250 degrees) at 17 MPH (15 KT):0
Visibility: 10 mile(s):0
Sky conditions: clear
Temperature: 59.0 F (15.0 C)
Dew Point: 51.1 F (10.6 C)
Relative Humidity: 74%
Pressure (altimeter): 29.91 in. Hg (1012 hPa)
ob: KNEW 270753Z AUTO 25015KT 10SM CLR 15/11 A2991 RMK AO2 SLP120 T01500106
cycle: 8

Station Type Date Time Source
KNEW TAF 2022/11/27 06:24 UTC NOAA

TAF KNEW 270521Z 2706/2806 25015G22KT P6SM FEW250
FM272200 24008KT P6SM SKC

Example: see airport list